Time;durP1;ratioP1;P1;durP2;ratioP2;P2;SDS_P1;SDS_P2;PMS_P1;PMS_P2;Temp;Humidity;BMP_temperature;BMP_pressure;BME280_temperature;BME280_humidity;BME280_pressure;Samples;Min_cycle;Max_cycle;Signal;HPM_P1;HPM_P2
2021/03/24 05:10:20;;;;;;;0.93;0.93;;;8.60;99.90;;;;;;6000792;23;20176;-76
2021/03/24 05:12:50;;;;;;;0.80;0.80;;;8.50;99.90;;;;;;4977354;28;20260;-77
2021/03/24 05:15:21;;;;;;;0.90;0.90;;;8.30;99.90;;;;;;4978240;28;20201;-76
2021/03/24 05:17:49;;;;;;;0.90;0.90;;;8.40;99.90;;;;;;4977894;28;20204;-77
2021/03/24 05:20:22;;;;;;;0.90;0.90;;;8.40;99.90;;;;;;4977648;28;20205;-76
2021/03/24 05:22:50;;;;;;;0.90;0.90;;;8.40;99.90;;;;;;4977592;28;20205;-77
2021/03/24 05:25:22;;;;;;;0.80;0.80;;;8.50;99.90;;;;;;4976668;28;20224;-73
2021/03/24 05:27:55;;;;;;;0.90;0.90;;;8.60;99.90;;;;;;4976131;28;20200;-72
2021/03/24 05:30:25;;;;;;;0.90;0.90;;;8.60;99.90;;;;;;4975698;28;20251;-72
2021/03/24 05:33:00;;;;;;;0.90;0.90;;;9.00;99.90;;;;;;4973193;28;20267;-72
2021/03/24 05:35:46;;;;;;;1.00;1.00;;;8.90;99.90;;;;;;4966037;28;20207;-71
2021/03/24 05:38:18;;;;;;;0.90;0.90;;;9.10;99.90;;;;;;4956279;28;20216;-72
2021/03/24 05:41:00;;;;;;;0.90;0.90;;;8.80;99.90;;;;;;4956243;28;20284;-71
2021/03/24 05:43:51;;;;;;;0.90;0.90;;;9.00;99.90;;;;;;4956165;28;20690;-74
2021/03/24 05:46:31;;;;;;;1.00;1.00;;;9.10;99.90;;;;;;4955865;28;20221;-75
2021/03/24 05:49:10;;;;;;;0.80;0.80;;;9.00;99.90;;;;;;4956254;28;20232;-76
2021/03/24 05:51:51;;;;;;;0.90;0.90;;;9.30;99.90;;;;;;4967734;28;20224;-74
2021/03/24 05:54:31;;;;;;;0.85;0.85;;;9.20;99.90;;;;;;4965684;28;20224;-77
2021/03/24 05:57:15;;;;;;;1.00;1.00;;;9.20;99.90;;;;;;4967692;28;20689;-74
2021/03/24 05:59:51;;;;;;;0.90;0.90;;;9.30;99.90;;;;;;4975302;28;20205;-73
2021/03/24 06:02:27;;;;;;;0.90;0.90;;;9.30;99.90;;;;;;4972026;28;20336;-76
2021/03/24 06:04:59;;;;;;;0.90;0.90;;;9.30;99.90;;;;;;4966960;28;20705;-73
2021/03/24 06:07:50;;;;;;;0.90;0.90;;;9.40;99.90;;;;;;4960207;28;20552;-74
2021/03/24 06:10:44;;;;;;;0.90;0.90;;;9.50;99.90;;;;;;4969850;28;20713;-73
2021/03/24 06:13:45;;;;;;;1.10;1.10;;;9.60;99.90;;;;;;4973822;28;20653;-73
2021/03/24 06:16:48;;;;;;;0.90;0.90;;;9.50;99.90;;;;;;4973522;28;20251;-75
2021/03/24 06:19:27;;;;;;;0.80;0.80;;;9.60;99.90;;;;;;4956940;28;20205;-75
2021/03/24 06:22:02;;;;;;;0.90;0.90;;;9.70;99.90;;;;;;4954008;29;20225;-75
2021/03/24 06:24:43;;;;;;;1.00;1.00;;;9.60;99.90;;;;;;4953112;29;20304;-74
2021/03/24 06:27:34;;;;;;;1.05;1.05;;;9.50;99.90;;;;;;4952907;29;20213;-74
2021/03/24 06:30:24;;;;;;;0.93;0.93;;;9.40;99.90;;;;;;4955059;29;20209;-74
2021/03/24 06:33:15;;;;;;;0.90;0.90;;;9.50;99.90;;;;;;4955002;29;20231;-73
2021/03/24 06:36:09;;;;;;;0.73;0.73;;;9.70;99.90;;;;;;4954645;29;20241;-72
2021/03/24 06:38:45;;;;;;;0.80;0.80;;;9.40;99.90;;;;;;4954609;29;20210;-72
2021/03/24 06:41:43;;;;;;;0.90;0.90;;;9.70;99.90;;;;;;4954578;29;20454;-72
2021/03/24 06:44:59;;;;;;;0.90;0.90;;;9.40;99.90;;;;;;4954571;29;20213;-73
2021/03/24 06:47:36;;;;;;;0.98;0.98;;;9.40;99.90;;;;;;4954288;29;20228;-73
2021/03/24 06:50:43;;;;;;;0.98;0.98;;;9.50;99.90;;;;;;4954174;29;20292;-73
2021/03/24 06:53:50;;;;;;;0.90;0.90;;;9.60;99.90;;;;;;4949401;28;20605;-73
2021/03/24 06:56:33;;;;;;;0.88;0.88;;;9.80;99.90;;;;;;4953804;29;20197;-72
2021/03/24 06:59:42;;;;;;;0.85;0.85;;;9.80;99.90;;;;;;4954226;28;20213;-75
2021/03/24 07:02:32;;;;;;;0.90;0.90;;;10.00;99.90;;;;;;4953947;29;20225;-73
2021/03/24 07:05:22;;;;;;;0.80;0.80;;;10.20;99.90;;;;;;4953805;29;20789;-73
2021/03/24 07:08:12;;;;;;;0.80;0.80;;;10.00;99.90;;;;;;4954059;29;20208;-73
2021/03/24 07:10:48;;;;;;;0.80;0.80;;;10.10;99.90;;;;;;4953839;29;20233;-73
2021/03/24 07:13:47;;;;;;;0.80;0.80;;;10.40;99.90;;;;;;4953762;29;20248;-73
2021/03/24 07:16:21;;;;;;;0.80;0.80;;;10.30;99.90;;;;;;4953800;29;20352;-73
2021/03/24 07:19:32;;;;;;;0.80;0.80;;;10.30;99.90;;;;;;4953762;29;20264;-73
2021/03/24 07:22:18;;;;;;;0.85;0.85;;;10.30;99.90;;;;;;4953993;28;20232;-72
2021/03/24 07:25:11;;;;;;;0.70;0.70;;;10.20;99.90;;;;;;4953446;29;20702;-72
2021/03/24 07:28:09;;;;;;;0.80;0.80;;;10.30;99.90;;;;;;4952788;28;20206;-73
2021/03/24 07:30:55;;;;;;;0.80;0.80;;;10.30;99.90;;;;;;4954027;29;20256;-73
2021/03/24 07:33:35;;;;;;;0.90;0.90;;;10.60;99.90;;;;;;4953768;28;20202;-72
2021/03/24 07:36:21;;;;;;;0.80;0.80;;;10.50;99.90;;;;;;4953400;29;20209;-73
2021/03/24 07:39:12;;;;;;;0.90;0.90;;;10.50;99.90;;;;;;4953575;29;20256;-73
2021/03/24 07:42:08;;;;;;;0.95;0.95;;;10.40;99.90;;;;;;4953632;29;20225;-73
2021/03/24 07:44:52;;;;;;;0.80;0.80;;;10.80;99.90;;;;;;4953409;29;20681;-73
2021/03/24 07:47:33;;;;;;;0.80;0.80;;;11.00;99.90;;;;;;4953680;29;20646;-72
2021/03/24 07:50:08;;;;;;;0.90;0.90;;;10.70;98.90;;;;;;4953731;29;20209;-74
2021/03/24 07:52:44;;;;;;;0.80;0.80;;;10.50;99.90;;;;;;4953410;29;20212;-72
2021/03/24 07:55:20;;;;;;;0.80;0.80;;;10.70;99.90;;;;;;4953418;29;20205;-74
2021/03/24 07:58:05;;;;;;;0.80;0.80;;;10.80;99.90;;;;;;4953378;29;20206;-72
2021/03/24 08:00:38;;;;;;;0.80;0.80;;;10.80;99.90;;;;;;4953331;29;20225;-72
2021/03/24 08:03:14;;;;;;;0.80;0.80;;;11.30;99.90;;;;;;4952989;29;20260;-72
2021/03/24 08:06:09;;;;;;;0.80;0.80;;;11.40;99.90;;;;;;4953323;29;20355;-75
2021/03/24 08:09:02;;;;;;;0.80;0.80;;;11.40;99.90;;;;;;4953163;29;20205;-73
2021/03/24 08:11:36;;;;;;;0.80;0.80;;;11.50;99.90;;;;;;4952959;29;20233;-75
2021/03/24 08:14:18;;;;;;;0.80;0.80;;;12.00;99.90;;;;;;4953131;28;20477;-73
2021/03/24 08:16:58;;;;;;;0.80;0.80;;;11.50;97.30;;;;;;4952958;29;20205;-73
2021/03/24 08:19:43;;;;;;;0.85;0.85;;;11.10;99.90;;;;;;4952881;29;20603;-72
2021/03/24 08:22:23;;;;;;;0.88;0.88;;;11.30;99.90;;;;;;4953174;29;20476;-73
2021/03/24 08:25:00;;;;;;;0.80;0.80;;;11.20;99.90;;;;;;4952840;29;20224;-73
2021/03/24 08:27:34;;;;;;;0.73;0.73;;;11.50;99.90;;;;;;4953158;28;20204;-72
2021/03/24 08:30:13;;;;;;;0.80;0.80;;;11.00;99.90;;;;;;4952767;29;20256;-73
2021/03/24 08:33:22;;;;;;;0.60;0.60;;;11.50;97.60;;;;;;4953189;29;20267;-74
2021/03/24 08:36:07;;;;;;;0.80;0.80;;;11.70;99.90;;;;;;4952810;29;20209;-73
2021/03/24 08:39:02;;;;;;;0.88;0.88;;;11.50;99.60;;;;;;4952643;29;21192;-73
2021/03/24 08:42:14;;;;;;;0.85;0.85;;;11.50;99.90;;;;;;4924036;28;20323;-73
2021/03/24 08:44:50;;;;;;;0.80;0.80;;;11.60;99.90;;;;;;4936805;28;20227;-73
2021/03/24 08:47:21;;;;;;;0.73;0.73;;;11.90;99.90;;;;;;4956748;29;20213;-73
2021/03/24 08:49:51;;;;;;;0.90;0.90;;;11.70;99.90;;;;;;4956532;29;20421;-72
2021/03/24 08:52:37;;;;;;;0.70;0.70;;;12.00;99.90;;;;;;4956521;29;20233;-73
2021/03/24 08:55:23;;;;;;;0.55;0.55;;;11.90;96.20;;;;;;4955986;29;20206;-74
2021/03/24 08:58:19;;;;;;;0.80;0.80;;;12.10;99.90;;;;;;4956462;29;20617;-73
2021/03/24 09:01:25;;;;;;;0.80;0.80;;;11.80;99.90;;;;;;4956498;29;20233;-73
2021/03/24 09:04:18;;;;;;;0.70;0.70;;;11.70;99.90;;;;;;4956382;29;20209;-73
2021/03/24 09:06:54;;;;;;;0.70;0.70;;;11.80;96.20;;;;;;4956049;29;20225;-74
2021/03/24 09:09:33;;;;;;;0.70;0.70;;;11.90;96.00;;;;;;4956272;29;20252;-74
2021/03/24 09:12:07;;;;;;;0.80;0.80;;;11.80;99.90;;;;;;4956422;29;20233;-73
2021/03/24 09:14:38;;;;;;;0.70;0.70;;;11.90;99.90;;;;;;4956358;29;20212;-73
2021/03/24 09:17:38;;;;;;;0.60;0.60;;;11.90;95.70;;;;;;4955891;29;20678;-74
2021/03/24 09:20:33;;;;;;;0.70;0.70;;;12.00;95.60;;;;;;4955832;29;20206;-73
2021/03/24 09:23:26;;;;;;;0.77;0.77;;;12.00;99.90;;;;;;4956504;29;20205;-74
2021/03/24 09:26:04;;;;;;;0.60;0.60;;;12.00;99.90;;;;;;4956026;29;20232;-74
2021/03/24 09:28:51;;;;;;;0.80;0.80;;;12.00;95.40;;;;;;4955790;29;20241;-74
2021/03/24 09:31:38;;;;;;;0.80;0.80;;;11.90;99.90;;;;;;4955875;29;20225;-73
2021/03/24 09:34:18;;;;;;;0.70;0.70;;;12.10;95.20;;;;;;4955773;28;20201;-74
2021/03/24 09:37:01;;;;;;;0.70;0.70;;;12.30;99.90;;;;;;4955397;29;20209;-73
2021/03/24 09:39:36;;;;;;;0.88;0.88;;;12.40;99.90;;;;;;4955442;29;20334;-73
2021/03/24 09:42:07;;;;;;;0.80;0.80;;;12.50;99.90;;;;;;4955776;29;20225;-74
2021/03/24 09:44:39;;;;;;;0.70;0.70;;;12.60;94.80;;;;;;4955457;28;20209;-74
2021/03/24 09:47:25;;;;;;;0.60;0.60;;;12.80;99.90;;;;;;4955426;28;20256;-73
2021/03/24 09:49:58;;;;;;;0.70;0.70;;;12.70;99.90;;;;;;4955261;29;20752;-73
2021/03/24 09:52:30;;;;;;;0.70;0.70;;;12.70;99.90;;;;;;4954847;28;20225;-73
2021/03/24 09:55:02;;;;;;;0.70;0.70;;;12.70;99.90;;;;;;4955147;28;20216;-74
2021/03/24 09:58:07;;;;;;;0.60;0.60;;;12.60;99.90;;;;;;4955295;29;20256;-73
2021/03/24 10:00:38;;;;;;;0.80;0.80;;;12.40;99.90;;;;;;4955224;28;20233;-73
2021/03/24 10:03:15;;;;;;;0.80;0.80;;;12.20;99.90;;;;;;4955101;29;20671;-73
2021/03/24 10:05:50;;;;;;;0.70;0.70;;;12.30;99.90;;;;;;4955353;28;20225;-73
2021/03/24 10:08:22;;;;;;;0.70;0.70;;;12.60;99.90;;;;;;4955415;29;20205;-73
2021/03/24 10:10:51;;;;;;;0.60;0.60;;;12.60;99.90;;;;;;4955072;29;20283;-73
2021/03/24 10:13:24;;;;;;;0.70;0.70;;;12.70;99.90;;;;;;4955099;29;20219;-73
2021/03/24 10:15:58;;;;;;;0.60;0.60;;;13.10;99.90;;;;;;4954766;28;20206;-73
2021/03/24 10:18:30;;;;;;;0.60;0.60;;;12.90;99.90;;;;;;4955041;29;20550;-75
2021/03/24 10:21:06;;;;;;;0.60;0.60;;;12.60;99.90;;;;;;4955218;29;20225;-73
2021/03/24 10:23:37;;;;;;;0.73;0.73;;;12.70;99.90;;;;;;4954983;29;20205;-74
2021/03/24 10:26:14;;;;;;;0.70;0.70;;;12.90;99.90;;;;;;4954627;29;20229;-74
2021/03/24 10:28:48;;;;;;;0.60;0.60;;;13.00;90.30;;;;;;4954810;29;20213;-74
2021/03/24 10:31:19;;;;;;;0.60;0.60;;;13.30;90.40;;;;;;4955049;29;20285;-75
2021/03/24 10:33:51;;;;;;;0.70;0.70;;;13.20;90.90;;;;;;4954626;29;20491;-72
2021/03/24 10:36:26;;;;;;;0.70;0.70;;;13.00;88.50;;;;;;4954459;29;20205;-73
2021/03/24 10:38:59;;;;;;;0.70;0.70;;;12.90;89.60;;;;;;4954649;29;20209;-73
2021/03/24 10:41:41;;;;;;;0.70;0.70;;;13.00;89.80;;;;;;4954102;29;20228;-73
2021/03/24 10:44:15;;;;;;;0.70;0.70;;;13.10;90.00;;;;;;4954581;29;20213;-72
2021/03/24 10:46:51;;;;;;;0.70;0.70;;;13.00;89.40;;;;;;4954201;29;20228;-73
2021/03/24 10:49:23;;;;;;;0.70;0.70;;;13.00;89.70;;;;;;4954479;29;20216;-73
2021/03/24 10:52:01;;;;;;;0.70;0.70;;;12.80;90.30;;;;;;4954002;29;20229;-73
2021/03/24 10:54:32;;;;;;;0.70;0.70;;;12.70;90.10;;;;;;4954255;29;20209;-73
2021/03/24 10:57:08;;;;;;;0.70;0.70;;;12.70;90.30;;;;;;4954018;29;20659;-73
2021/03/24 10:59:41;;;;;;;0.70;0.70;;;12.50;90.30;;;;;;4954154;29;20264;-73
2021/03/24 11:02:26;;;;;;;0.70;0.70;;;12.50;90.30;;;;;;4954022;28;20240;-73
2021/03/24 11:05:02;;;;;;;0.70;0.70;;;12.70;90.50;;;;;;4953918;29;20212;-73
2021/03/24 11:07:37;;;;;;;0.70;0.70;;;12.90;90.60;;;;;;4954341;29;20654;-73
2021/03/24 11:10:34;;;;;;;0.60;0.60;;;12.90;90.00;;;;;;4954037;29;20692;-73
2021/03/24 11:13:05;;;;;;;0.70;0.70;;;12.90;90.30;;;;;;4952055;29;20205;-73
2021/03/24 11:15:48;;;;;;;0.70;0.70;;;13.00;89.40;;;;;;4953739;29;20212;-73
2021/03/24 11:18:24;;;;;;;0.70;0.70;;;13.00;90.10;;;;;;4953886;29;20577;-73
2021/03/24 11:20:55;;;;;;;0.60;0.60;;;13.10;90.00;;;;;;4953510;29;20232;-73
2021/03/24 11:23:26;;;;;;;0.50;0.50;;;13.00;89.10;;;;;;4953803;29;20213;-73
2021/03/24 11:25:58;;;;;;;0.70;0.70;;;12.90;90.10;;;;;;4954091;29;20233;-76
2021/03/24 11:28:29;;;;;;;0.70;0.70;;;12.90;90.00;;;;;;4953698;29;20205;-77
2021/03/24 11:31:04;;;;;;;0.60;0.60;;;13.00;90.10;;;;;;4953420;29;20225;-76
2021/03/24 11:33:36;;;;;;;0.60;0.60;;;13.10;90.00;;;;;;4953477;29;20662;-76
2021/03/24 11:36:14;;;;;;;0.55;0.55;;;13.20;90.00;;;;;;4953604;29;20229;-76
2021/03/24 11:38:50;;;;;;;0.60;0.60;;;13.00;89.40;;;;;;4953874;28;20554;-76
2021/03/24 11:41:23;;;;;;;0.70;0.70;;;13.00;90.00;;;;;;4953595;29;20228;-76
2021/03/24 11:43:58;;;;;;;0.50;0.50;;;13.20;89.30;;;;;;4953449;29;20209;-76
2021/03/24 11:46:30;;;;;;;0.70;0.70;;;13.50;87.90;;;;;;4953325;29;20228;-77
2021/03/24 11:49:27;;;;;;;0.60;0.60;;;13.30;88.60;;;;;;4953565;29;20205;-76
2021/03/24 11:52:14;;;;;;;0.60;0.60;;;13.20;88.30;;;;;;4953265;29;20226;-76
2021/03/24 11:54:59;;;;;;;0.70;0.70;;;13.10;87.90;;;;;;4953327;29;20291;-74
2021/03/24 11:57:47;;;;;;;0.70;0.70;;;13.00;89.80;;;;;;4953359;29;20208;-76
2021/03/24 12:00:33;;;;;;;0.70;0.70;;;13.40;99.90;;;;;;4953496;29;20206;-76
2021/03/24 12:03:15;;;;;;;0.70;0.70;;;13.10;90.30;;;;;;4953741;28;20585;-76
2021/03/24 12:05:54;;;;;;;0.70;0.70;;;13.20;90.10;;;;;;4953126;29;20228;-76
2021/03/24 12:08:32;;;;;;;0.70;0.70;;;13.10;90.30;;;;;;4953594;29;20229;-76
2021/03/24 12:11:15;;;;;;;0.60;0.60;;;13.30;90.40;;;;;;4953963;29;20232;-76
2021/03/24 12:13:42;;;;;;;0.60;0.60;;;13.40;89.90;;;;;;4954126;28;20213;-76
2021/03/24 12:16:11;;;;;;;0.68;0.68;;;13.50;88.60;;;;;;4959388;29;20205;-76
2021/03/24 12:18:42;;;;;;;0.70;0.70;;;13.50;89.00;;;;;;4959721;29;20260;-76
2021/03/24 12:21:20;;;;;;;0.70;0.70;;;13.80;88.00;;;;;;4959770;28;20233;-76
2021/03/24 12:23:48;;;;;;;0.60;0.60;;;14.10;87.10;;;;;;4959630;29;20263;-76
2021/03/24 12:26:25;;;;;;;0.63;0.63;;;14.10;88.00;;;;;;4959337;28;20225;-76
2021/03/24 12:28:55;;;;;;;0.57;0.57;;;13.60;89.50;;;;;;4959545;29;20212;-76
2021/03/24 12:31:23;;;;;;;0.50;0.50;;;13.70;90.10;;;;;;4959355;29;20229;-76
2021/03/24 12:33:54;;;;;;;0.50;0.50;;;13.70;90.20;;;;;;4959782;28;20201;-76
2021/03/24 12:36:24;;;;;;;0.60;0.60;;;13.70;89.70;;;;;;4959640;29;20260;-76
2021/03/24 12:38:56;;;;;;;0.57;0.57;;;13.60;90.00;;;;;;4959799;28;20216;-76
2021/03/24 12:41:34;;;;;;;0.80;0.80;;;13.40;89.60;;;;;;4959368;28;20661;-76
2021/03/24 12:44:20;;;;;;;0.70;0.70;;;13.30;90.20;;;;;;4959639;29;20230;-76
2021/03/24 12:46:54;;;;;;;0.60;0.60;;;13.20;90.10;;;;;;4959337;29;20283;-76
2021/03/24 12:49:24;;;;;;;0.50;0.50;;;13.20;90.40;;;;;;4959822;29;20200;-76
2021/03/24 12:52:02;;;;;;;0.70;0.70;;;13.30;90.20;;;;;;4959489;29;20233;-76
2021/03/24 12:54:30;;;;;;;0.60;0.60;;;13.20;90.20;;;;;;4959533;28;20585;-76
2021/03/24 12:57:36;;;;;;;0.60;0.60;;;13.10;90.10;;;;;;4959166;29;20206;-74
2021/03/24 13:00:31;;;;;;;0.68;0.68;;;13.10;89.90;;;;;;4900378;29;20217;-76
2021/03/24 13:03:26;;;;;;;0.70;0.70;;;13.20;90.50;;;;;;4957086;28;20627;-76
2021/03/24 13:06:07;;;;;;;0.70;0.70;;;13.40;90.10;;;;;;4959622;29;20235;-76
2021/03/24 13:08:58;;;;;;;0.70;0.70;;;13.50;89.20;;;;;;4959731;29;20563;-76
2021/03/24 13:11:34;;;;;;;0.70;0.70;;;13.70;89.30;;;;;;4958885;29;20658;-76
2021/03/24 13:14:21;;;;;;;0.60;0.60;;;13.90;88.80;;;;;;4960749;28;20212;-76
2021/03/24 13:16:57;;;;;;;0.70;0.70;;;13.60;88.20;;;;;;4959259;29;20260;-77
2021/03/24 13:19:30;;;;;;;0.60;0.60;;;13.60;88.10;;;;;;4959230;28;20205;-76
2021/03/24 13:22:04;;;;;;;0.60;0.60;;;13.80;88.10;;;;;;4958966;29;20777;-76
2021/03/24 13:24:46;;;;;;;0.60;0.60;;;13.90;87.40;;;;;;4959340;28;20256;-76
2021/03/24 13:27:32;;;;;;;0.60;0.60;;;13.90;88.00;;;;;;4955856;28;20233;-76
2021/03/24 13:30:05;;;;;;;0.70;0.70;;;14.00;87.90;;;;;;4956116;29;20276;-76
2021/03/24 13:32:41;;;;;;;0.70;0.70;;;14.20;87.80;;;;;;4956186;29;20232;-76
2021/03/24 13:35:19;;;;;;;0.60;0.60;;;14.20;86.70;;;;;;4956341;29;20211;-76
2021/03/24 13:37:48;;;;;;;0.60;0.60;;;14.30;86.30;;;;;;4956554;29;20205;-76
2021/03/24 13:40:25;;;;;;;0.50;0.50;;;14.30;98.30;;;;;;4956839;29;20205;-76
2021/03/24 13:42:58;;;;;;;0.50;0.50;;;14.30;86.10;;;;;;4956002;29;20217;-76
2021/03/24 13:45:32;;;;;;;0.50;0.50;;;14.20;85.80;;;;;;4955303;29;20682;-76
2021/03/24 13:48:04;;;;;;;0.60;0.60;;;14.40;86.30;;;;;;4955507;29;20220;-76
2021/03/24 13:50:35;;;;;;;0.70;0.70;;;14.30;86.70;;;;;;4955393;29;20229;-76
2021/03/24 13:53:03;;;;;;;0.60;0.60;;;14.20;85.60;;;;;;4955024;29;20670;-74
2021/03/24 13:55:49;;;;;;;0.70;0.70;;;14.20;85.90;;;;;;4955124;29;20221;-76
2021/03/24 13:58:51;;;;;;;0.60;0.60;;;14.20;86.40;;;;;;4955569;29;20647;-76
2021/03/24 14:01:22;;;;;;;0.50;0.50;;;14.30;86.80;;;;;;4955263;28;20478;-76
2021/03/24 14:04:00;;;;;;;0.60;0.60;;;14.30;86.80;;;;;;4955357;29;20201;-76
2021/03/24 14:06:49;;;;;;;0.50;0.50;;;14.30;86.60;;;;;;4955080;29;20659;-76
2021/03/24 14:09:22;;;;;;;0.50;0.50;;;14.50;85.10;;;;;;4955073;29;20260;-76
2021/03/24 14:12:03;;;;;;;0.60;0.60;;;14.60;85.20;;;;;;4954824;28;20240;-76
2021/03/24 14:14:44;;;;;;;0.68;0.68;;;14.40;85.70;;;;;;4955272;29;20209;-76
2021/03/24 14:17:16;;;;;;;0.60;0.60;;;14.60;85.70;;;;;;4955297;29;20205;-75
2021/03/24 14:19:49;;;;;;;0.60;0.60;;;14.60;85.70;;;;;;4954919;29;20696;-76
2021/03/24 14:22:25;;;;;;;0.60;0.60;;;14.50;86.00;;;;;;4954503;29;20292;-76
2021/03/24 14:25:19;;;;;;;0.50;0.50;;;14.50;85.10;;;;;;4954669;29;20248;-76
2021/03/24 14:28:01;;;;;;;0.60;0.60;;;14.40;85.40;;;;;;4954802;28;20201;-76
2021/03/24 14:30:34;;;;;;;0.60;0.60;;;14.70;97.50;;;;;;4955042;28;20237;-76
2021/03/24 14:33:15;;;;;;;0.50;0.50;;;14.50;85.60;;;;;;4954751;29;20264;-76
2021/03/24 14:35:52;;;;;;;0.50;0.50;;;14.50;84.70;;;;;;4954488;29;20252;-76
2021/03/24 14:38:49;;;;;;;0.60;0.60;;;14.60;84.50;;;;;;4953377;28;20299;-75
2021/03/24 14:41:23;;;;;;;0.70;0.70;;;14.60;84.70;;;;;;4952119;28;20288;-76
2021/03/24 14:44:19;;;;;;;0.50;0.50;;;14.70;84.40;;;;;;4954597;29;20253;-76
2021/03/24 14:47:06;;;;;;;0.60;0.60;;;14.60;84.00;;;;;;4954232;29;20272;-76
2021/03/24 14:49:52;;;;;;;0.65;0.65;;;14.60;84.30;;;;;;4942307;29;20627;-76
2021/03/24 14:52:28;;;;;;;0.60;0.60;;;14.40;84.70;;;;;;4954284;29;20274;-76
2021/03/24 14:54:57;;;;;;;0.50;0.50;;;14.50;84.80;;;;;;4954019;29;20209;-76
2021/03/24 14:57:29;;;;;;;0.52;0.52;;;14.60;84.90;;;;;;4966133;28;20592;-76
2021/03/24 14:59:56;;;;;;;0.60;0.60;;;14.60;84.90;;;;;;4974489;28;20204;-76
2021/03/24 15:02:36;;;;;;;0.50;0.50;;;14.70;84.10;;;;;;4957359;28;20225;-77
2021/03/24 15:05:26;;;;;;;0.45;0.45;;;14.70;84.10;;;;;;4953728;28;20209;-75
2021/03/24 15:08:14;;;;;;;0.50;0.50;;;14.80;83.70;;;;;;4953918;29;20362;-77
2021/03/24 15:10:54;;;;;;;0.60;0.60;;;15.10;84.10;;;;;;4953881;29;20237;-76
2021/03/24 15:13:26;;;;;;;0.50;0.50;;;15.20;82.70;;;;;;4953936;29;20209;-75
2021/03/24 15:16:03;;;;;;;0.60;0.60;;;15.00;82.90;;;;;;4953635;29;20209;-76
2021/03/24 15:18:42;;;;;;;0.60;0.60;;;15.00;83.00;;;;;;4953690;28;20211;-75
2021/03/24 15:21:18;;;;;;;0.50;0.50;;;15.10;84.30;;;;;;4954114;28;20244;-75
2021/03/24 15:23:56;;;;;;;0.50;0.50;;;15.20;83.00;;;;;;4958051;28;20222;-75
2021/03/24 15:26:37;;;;;;;0.60;0.60;;;15.40;82.60;;;;;;4973845;28;20227;-78
2021/03/24 15:29:16;;;;;;;0.60;0.60;;;15.20;82.40;;;;;;4980513;28;20205;-77
2021/03/24 15:31:52;;;;;;;0.50;0.50;;;15.30;82.30;;;;;;4981935;28;20645;-77
2021/03/24 15:34:32;;;;;;;0.50;0.50;;;15.20;82.20;;;;;;4977578;28;20559;-76
2021/03/24 15:37:28;;;;;;;0.40;0.40;;;15.20;82.40;;;;;;4963771;28;20629;-75
2021/03/24 15:40:02;;;;;;;0.50;0.50;;;15.20;83.20;;;;;;4933692;28;20255;-76
2021/03/24 15:42:36;;;;;;;0.50;0.50;;;15.20;82.20;;;;;;4972387;28;20279;-75
2021/03/24 15:45:10;;;;;;;0.60;0.60;;;15.00;82.50;;;;;;4973204;28;20208;-78
2021/03/24 15:47:42;;;;;;;0.52;0.52;;;14.90;82.20;;;;;;4974733;28;20224;-75
2021/03/24 15:50:39;;;;;;;0.60;0.60;;;15.00;82.30;;;;;;4974113;28;20204;-76
2021/03/24 15:53:20;;;;;;;0.40;0.40;;;15.00;82.50;;;;;;4972168;28;20205;-75
2021/03/24 15:55:48;;;;;;;0.50;0.50;;;15.00;82.50;;;;;;4971922;28;20440;-75
2021/03/24 15:58:52;;;;;;;0.60;0.60;;;14.90;83.00;;;;;;4972371;28;20232;-75
2021/03/24 16:01:24;;;;;;;0.47;0.47;;;14.90;82.80;;;;;;4963350;28;20268;-76
2021/03/24 16:04:19;;;;;;;0.50;0.50;;;14.80;83.50;;;;;;4953294;28;20204;-75
2021/03/24 16:07:01;;;;;;;0.50;0.50;;;14.70;82.80;;;;;;4952782;29;20602;-76
2021/03/24 16:09:43;;;;;;;0.50;0.50;;;14.80;84.10;;;;;;4953309;29;20209;-76
2021/03/24 16:12:37;;;;;;;0.57;0.57;;;14.70;83.90;;;;;;4952782;29;20244;-76
2021/03/24 16:15:17;;;;;;;0.50;0.50;;;14.60;84.10;;;;;;4952921;29;20205;-76
2021/03/24 16:17:47;;;;;;;0.60;0.60;;;14.60;84.20;;;;;;4952958;29;20635;-75
2021/03/24 16:20:22;;;;;;;0.60;0.60;;;14.50;97.10;;;;;;4952665;29;20229;-76
2021/03/24 16:23:19;;;;;;;0.60;0.60;;;14.60;84.60;;;;;;4952704;29;20279;-76
2021/03/24 16:25:50;;;;;;;0.47;0.47;;;14.50;84.70;;;;;;4952386;29;20205;-75
2021/03/24 16:28:48;;;;;;;0.50;0.50;;;14.40;85.70;;;;;;4952432;29;20300;-76
2021/03/24 16:31:49;;;;;;;0.40;0.40;;;14.40;86.20;;;;;;4952388;29;20232;-75
2021/03/24 16:34:59;;;;;;;0.43;0.43;;;14.30;85.90;;;;;;4925822;29;20260;-77
2021/03/24 16:37:36;;;;;;;0.60;0.60;;;14.20;86.20;;;;;;4952598;29;20212;-74
2021/03/24 16:40:29;;;;;;;0.60;0.60;;;13.90;97.60;;;;;;4953867;29;20228;-76
2021/03/24 16:43:22;;;;;;;0.50;0.50;;;13.80;97.60;;;;;;4953576;29;20600;-75
2021/03/24 16:46:16;;;;;;;0.68;0.68;;;13.70;85.90;;;;;;4952424;29;20209;-76
2021/03/24 16:49:12;;;;;;;0.50;0.50;;;13.90;97.90;;;;;;4952907;28;20213;-76
2021/03/24 16:52:08;;;;;;;0.40;0.40;;;13.60;86.40;;;;;;4952687;28;20377;-75
2021/03/24 16:55:01;;;;;;;0.50;0.50;;;13.60;86.60;;;;;;4952544;29;20205;-77
2021/03/24 16:57:39;;;;;;;0.40;0.40;;;13.60;98.00;;;;;;4954752;29;20667;-77
2021/03/24 17:00:13;;;;;;;0.43;0.43;;;13.50;87.20;;;;;;4955119;28;20260;-76
2021/03/24 17:02:57;;;;;;;0.50;0.50;;;13.50;87.40;;;;;;4956565;29;20205;-77
2021/03/24 17:05:29;;;;;;;0.60;0.60;;;13.50;87.00;;;;;;4957217;29;20209;-76
2021/03/24 17:08:01;;;;;;;0.60;0.60;;;13.20;98.50;;;;;;4956423;28;20285;-77
2021/03/24 17:10:47;;;;;;;0.60;0.60;;;13.30;98.70;;;;;;4956601;29;20208;-74
2021/03/24 17:13:21;;;;;;;0.60;0.60;;;13.30;88.60;;;;;;4957131;28;20264;-77
2021/03/24 17:15:54;;;;;;;0.60;0.60;;;13.20;88.90;;;;;;4955796;29;20268;-77
2021/03/24 17:18:32;;;;;;;0.57;0.57;;;13.20;89.20;;;;;;4955716;29;20205;-77
2021/03/24 17:21:09;;;;;;;0.50;0.50;;;13.20;88.70;;;;;;4955576;29;20796;-77
2021/03/24 17:23:45;;;;;;;0.50;0.50;;;13.20;89.40;;;;;;4955343;29;20228;-75
2021/03/24 17:26:26;;;;;;;0.50;0.50;;;13.20;90.10;;;;;;4955867;28;20303;-75
2021/03/24 17:29:08;;;;;;;0.60;0.60;;;13.00;99.90;;;;;;4963328;28;20260;-75
2021/03/24 17:31:36;;;;;;;0.50;0.50;;;13.20;99.90;;;;;;4955373;28;20639;-74
2021/03/24 17:34:25;;;;;;;0.60;0.60;;;13.00;91.90;;;;;;4955636;28;20256;-74
2021/03/24 17:37:03;;;;;;;0.60;0.60;;;12.90;90.90;;;;;;4955459;28;20659;-74
2021/03/24 17:39:56;;;;;;;0.50;0.50;;;12.80;91.40;;;;;;4955383;28;20205;-75
2021/03/24 17:42:44;;;;;;;0.60;0.60;;;12.70;92.00;;;;;;4932929;28;20226;-75
2021/03/24 17:45:18;;;;;;;0.63;0.63;;;12.60;99.90;;;;;;4955047;28;20209;-75
2021/03/24 17:48:04;;;;;;;0.65;0.65;;;12.70;99.90;;;;;;4955205;28;20220;-74
2021/03/24 17:50:33;;;;;;;0.65;0.65;;;12.30;92.80;;;;;;4955051;28;20605;-76
2021/03/24 17:53:12;;;;;;;0.60;0.60;;;12.20;93.40;;;;;;4955241;28;20698;-74
2021/03/24 17:55:46;;;;;;;0.50;0.50;;;12.10;93.50;;;;;;4955345;28;20209;-73
2021/03/24 17:58:25;;;;;;;0.60;0.60;;;12.00;93.80;;;;;;4955629;28;20247;-74
2021/03/24 18:00:56;;;;;;;0.70;0.70;;;11.90;94.20;;;;;;4955264;28;20225;-76
2021/03/24 18:04:04;;;;;;;0.70;0.70;;;11.80;94.30;;;;;;4955418;28;20202;-74
2021/03/24 18:06:36;;;;;;;0.80;0.80;;;11.80;94.60;;;;;;4940225;28;20232;-74
2021/03/24 18:09:14;;;;;;;0.70;0.70;;;11.70;95.00;;;;;;4955080;28;20205;-74
2021/03/24 18:11:47;;;;;;;0.60;0.60;;;11.60;95.40;;;;;;4954644;28;20587;-74
2021/03/24 18:14:27;;;;;;;0.60;0.60;;;11.50;95.60;;;;;;4966152;28;20345;-74
2021/03/24 18:16:58;;;;;;;0.88;0.88;;;11.30;96.50;;;;;;4974440;28;20188;-74
2021/03/24 18:19:44;;;;;;;0.70;0.70;;;11.20;96.50;;;;;;4974165;28;20592;-74
2021/03/24 18:22:16;;;;;;;0.60;0.60;;;11.10;99.90;;;;;;4974354;28;20232;-75
2021/03/24 18:24:43;;;;;;;0.70;0.70;;;11.00;99.90;;;;;;4973894;28;20765;-74
2021/03/24 18:27:20;;;;;;;0.70;0.70;;;10.90;99.90;;;;;;4974075;28;20221;-74
2021/03/24 18:29:50;;;;;;;0.80;0.80;;;10.90;97.40;;;;;;4973062;28;20196;-74
2021/03/24 18:32:17;;;;;;;0.70;0.70;;;10.80;99.90;;;;;;4972563;28;20228;-74
2021/03/24 18:34:48;;;;;;;0.70;0.70;;;10.80;99.90;;;;;;4965024;28;20328;-74
2021/03/24 18:37:20;;;;;;;0.70;0.70;;;10.80;99.90;;;;;;4973327;28;20208;-74
2021/03/24 18:39:55;;;;;;;0.70;0.70;;;10.70;98.30;;;;;;4974145;28;20208;-74
2021/03/24 18:42:25;;;;;;;0.70;0.70;;;10.60;98.60;;;;;;4966071;28;20236;-74
2021/03/24 18:44:55;;;;;;;0.73;0.73;;;10.60;98.90;;;;;;4962330;28;20218;-75
2021/03/24 18:47:26;;;;;;;0.70;0.70;;;10.60;99.10;;;;;;4952939;28;20702;-75
2021/03/24 18:49:54;;;;;;;0.73;0.73;;;10.50;99.90;;;;;;4954117;28;20745;-75
2021/03/24 18:52:25;;;;;;;0.60;0.60;;;10.50;99.90;;;;;;4954003;28;20236;-75
2021/03/24 18:54:53;;;;;;;0.77;0.77;;;10.40;99.40;;;;;;4953790;28;20235;-75
2021/03/24 18:57:23;;;;;;;0.80;0.80;;;10.20;99.60;;;;;;4953557;28;20205;-75
2021/03/24 19:00:08;;;;;;;0.70;0.70;;;10.10;99.90;;;;;;4957960;28;20205;-75
2021/03/24 19:02:36;;;;;;;0.70;0.70;;;10.00;99.90;;;;;;4973131;28;20267;-75
2021/03/24 19:05:15;;;;;;;0.80;0.80;;;10.00;99.90;;;;;;4971976;28;20303;-75